sensor_id;sensor_type;location;lat;lon;timestamp;temperature;humidity
50570;DHT22;36525;49.398;7.614;2023-03-14T00:01:17;8.50;99.90
50570;DHT22;36525;49.398;7.614;2023-03-14T00:03:47;8.40;99.90
50570;DHT22;36525;49.398;7.614;2023-03-14T00:06:15;8.40;99.90
50570;DHT22;36525;49.398;7.614;2023-03-14T00:08:43;8.30;99.90
50570;DHT22;36525;49.398;7.614;2023-03-14T00:11:19;8.30;99.90
50570;DHT22;36525;49.398;7.614;2023-03-14T00:13:48;8.30;99.90
50570;DHT22;36525;49.398;7.614;2023-03-14T00:16:19;8.20;99.90
50570;DHT22;36525;49.398;7.614;2023-03-14T00:18:47;8.20;99.90
50570;DHT22;36525;49.398;7.614;2023-03-14T00:21:14;8.20;99.90
50570;DHT22;36525;49.398;7.614;2023-03-14T00:23:42;8.20;99.90
50570;DHT22;36525;49.398;7.614;2023-03-14T00:26:12;8.10;99.90
50570;DHT22;36525;49.398;7.614;2023-03-14T00:28:42;8.20;99.90
50570;DHT22;36525;49.398;7.614;2023-03-14T00:31:12;8.10;99.90
50570;DHT22;36525;49.398;7.614;2023-03-14T00:33:42;8.10;99.90
50570;DHT22;36525;49.398;7.614;2023-03-14T00:36:12;8.10;99.90
50570;DHT22;36525;49.398;7.614;2023-03-14T00:38:43;8.10;99.90
50570;DHT22;36525;49.398;7.614;2023-03-14T00:41:14;8.10;99.90
50570;DHT22;36525;49.398;7.614;2023-03-14T00:43:44;8.20;99.90
50570;DHT22;36525;49.398;7.614;2023-03-14T00:46:12;8.20;99.90
50570;DHT22;36525;49.398;7.614;2023-03-14T00:48:39;8.10;99.90
50570;DHT22;36525;49.398;7.614;2023-03-14T00:51:08;8.20;99.90
50570;DHT22;36525;49.398;7.614;2023-03-14T00:53:36;8.20;99.90
50570;DHT22;36525;49.398;7.614;2023-03-14T00:56:06;8.20;99.90
50570;DHT22;36525;49.398;7.614;2023-03-14T00:58:35;8.20;99.90
50570;DHT22;36525;49.398;7.614;2023-03-14T01:01:08;8.20;99.90
50570;DHT22;36525;49.398;7.614;2023-03-14T01:03:36;8.20;99.90
50570;DHT22;36525;49.398;7.614;2023-03-14T01:06:11;8.20;99.90
50570;DHT22;36525;49.398;7.614;2023-03-14T01:08:44;8.30;99.90
50570;DHT22;36525;49.398;7.614;2023-03-14T01:11:21;8.30;99.90
50570;DHT22;36525;49.398;7.614;2023-03-14T01:13:53;8.20;99.90
50570;DHT22;36525;49.398;7.614;2023-03-14T01:16:22;8.30;99.90
50570;DHT22;36525;49.398;7.614;2023-03-14T01:18:51;8.30;99.90
50570;DHT22;36525;49.398;7.614;2023-03-14T01:21:20;8.30;99.90
50570;DHT22;36525;49.398;7.614;2023-03-14T01:23:53;8.40;99.90
50570;DHT22;36525;49.398;7.614;2023-03-14T01:26:24;8.20;99.90
50570;DHT22;36525;49.398;7.614;2023-03-14T01:28:54;8.30;99.90
50570;DHT22;36525;49.398;7.614;2023-03-14T01:31:23;8.20;99.90
50570;DHT22;36525;49.398;7.614;2023-03-14T01:33:51;8.20;99.90
50570;DHT22;36525;49.398;7.614;2023-03-14T01:36:18;8.10;99.90
50570;DHT22;36525;49.398;7.614;2023-03-14T01:38:46;8.00;99.90
50570;DHT22;36525;49.398;7.614;2023-03-14T01:41:19;7.90;99.90
50570;DHT22;36525;49.398;7.614;2023-03-14T01:43:50;8.00;99.90
50570;DHT22;36525;49.398;7.614;2023-03-14T01:46:29;7.90;99.90
50570;DHT22;36525;49.398;7.614;2023-03-14T01:52:10;7.90;99.90
50570;DHT22;36525;49.398;7.614;2023-03-14T01:54:43;7.90;99.90
50570;DHT22;36525;49.398;7.614;2023-03-14T01:57:19;7.90;99.90
50570;DHT22;36525;49.398;7.614;2023-03-14T02:00:15;7.90;99.90
50570;DHT22;36525;49.398;7.614;2023-03-14T02:02:57;7.90;99.90
50570;DHT22;36525;49.398;7.614;2023-03-14T02:05:32;8.00;99.90
50570;DHT22;36525;49.398;7.614;2023-03-14T02:08:04;8.10;99.90
50570;DHT22;36525;49.398;7.614;2023-03-14T02:10:35;8.10;99.90
50570;DHT22;36525;49.398;7.614;2023-03-14T02:13:06;8.20;99.90
50570;DHT22;36525;49.398;7.614;2023-03-14T02:15:33;8.20;99.90
50570;DHT22;36525;49.398;7.614;2023-03-14T02:18:02;8.10;99.90
50570;DHT22;36525;49.398;7.614;2023-03-14T02:27:00;8.20;99.90
50570;DHT22;36525;49.398;7.614;2023-03-14T02:29:31;8.20;99.90
50570;DHT22;36525;49.398;7.614;2023-03-14T02:32:00;8.10;99.90
50570;DHT22;36525;49.398;7.614;2023-03-14T02:34:27;8.20;99.90
50570;DHT22;36525;49.398;7.614;2023-03-14T02:36:55;8.30;99.90
50570;DHT22;36525;49.398;7.614;2023-03-14T02:39:31;8.20;99.90
50570;DHT22;36525;49.398;7.614;2023-03-14T02:42:02;8.30;99.90
50570;DHT22;36525;49.398;7.614;2023-03-14T02:44:29;8.20;99.90
50570;DHT22;36525;49.398;7.614;2023-03-14T02:46:57;8.20;99.90
50570;DHT22;36525;49.398;7.614;2023-03-14T02:49:25;8.20;99.90
50570;DHT22;36525;49.398;7.614;2023-03-14T02:51:53;8.20;99.90
50570;DHT22;36525;49.398;7.614;2023-03-14T02:54:20;8.20;99.90
50570;DHT22;36525;49.398;7.614;2023-03-14T02:56:48;8.20;99.90
50570;DHT22;36525;49.398;7.614;2023-03-14T02:59:14;8.20;99.90
50570;DHT22;36525;49.398;7.614;2023-03-14T03:01:41;8.20;99.90
50570;DHT22;36525;49.398;7.614;2023-03-14T03:04:08;8.10;99.90
50570;DHT22;36525;49.398;7.614;2023-03-14T03:06:35;8.10;99.90
50570;DHT22;36525;49.398;7.614;2023-03-14T03:09:03;8.10;99.90
50570;DHT22;36525;49.398;7.614;2023-03-14T03:11:30;8.00;99.90
50570;DHT22;36525;49.398;7.614;2023-03-14T03:13:58;8.00;99.90
50570;DHT22;36525;49.398;7.614;2023-03-14T03:16:25;7.90;99.90
50570;DHT22;36525;49.398;7.614;2023-03-14T03:18:52;7.80;99.90
50570;DHT22;36525;49.398;7.614;2023-03-14T03:21:19;7.80;99.90
50570;DHT22;36525;49.398;7.614;2023-03-14T03:23:50;7.80;99.90
50570;DHT22;36525;49.398;7.614;2023-03-14T03:26:17;7.80;99.90
50570;DHT22;36525;49.398;7.614;2023-03-14T03:28:44;7.90;99.90
50570;DHT22;36525;49.398;7.614;2023-03-14T03:31:12;7.80;99.90
50570;DHT22;36525;49.398;7.614;2023-03-14T03:33:39;7.90;99.90
50570;DHT22;36525;49.398;7.614;2023-03-14T03:36:07;7.90;99.90
50570;DHT22;36525;49.398;7.614;2023-03-14T03:38:35;7.80;99.90
50570;DHT22;36525;49.398;7.614;2023-03-14T03:41:05;7.80;99.90
50570;DHT22;36525;49.398;7.614;2023-03-14T03:43:33;7.70;99.90
50570;DHT22;36525;49.398;7.614;2023-03-14T03:46:06;7.70;99.90
50570;DHT22;36525;49.398;7.614;2023-03-14T03:48:35;7.70;99.90
50570;DHT22;36525;49.398;7.614;2023-03-14T03:51:02;7.70;99.90
50570;DHT22;36525;49.398;7.614;2023-03-14T03:53:29;7.80;99.90
50570;DHT22;36525;49.398;7.614;2023-03-14T03:55:59;7.80;99.90
50570;DHT22;36525;49.398;7.614;2023-03-14T03:58:27;7.70;99.90
50570;DHT22;36525;49.398;7.614;2023-03-14T04:00:54;7.70;99.90
50570;DHT22;36525;49.398;7.614;2023-03-14T04:03:21;7.60;99.90
50570;DHT22;36525;49.398;7.614;2023-03-14T04:06:03;7.60;99.90
50570;DHT22;36525;49.398;7.614;2023-03-14T04:08:32;7.50;99.90
50570;DHT22;36525;49.398;7.614;2023-03-14T04:11:00;7.40;99.90
50570;DHT22;36525;49.398;7.614;2023-03-14T04:13:28;7.50;99.90
50570;DHT22;36525;49.398;7.614;2023-03-14T04:15:55;7.50;99.90
50570;DHT22;36525;49.398;7.614;2023-03-14T04:18:23;7.40;99.90
50570;DHT22;36525;49.398;7.614;2023-03-14T04:20:55;7.40;99.90
50570;DHT22;36525;49.398;7.614;2023-03-14T04:23:23;7.40;99.90
50570;DHT22;36525;49.398;7.614;2023-03-14T04:25:51;7.40;99.90
50570;DHT22;36525;49.398;7.614;2023-03-14T04:28:19;7.50;99.90
50570;DHT22;36525;49.398;7.614;2023-03-14T04:30:46;7.50;99.90
50570;DHT22;36525;49.398;7.614;2023-03-14T04:33:13;7.50;99.90
50570;DHT22;36525;49.398;7.614;2023-03-14T04:35:44;7.60;99.90
50570;DHT22;36525;49.398;7.614;2023-03-14T04:38:12;7.60;99.90
50570;DHT22;36525;49.398;7.614;2023-03-14T04:40:40;7.50;99.90
50570;DHT22;36525;49.398;7.614;2023-03-14T04:43:08;7.60;99.90
50570;DHT22;36525;49.398;7.614;2023-03-14T04:45:37;7.60;99.90
50570;DHT22;36525;49.398;7.614;2023-03-14T04:48:07;7.60;99.90
50570;DHT22;36525;49.398;7.614;2023-03-14T04:50:35;7.60;99.90
50570;DHT22;36525;49.398;7.614;2023-03-14T04:53:02;7.70;99.90
50570;DHT22;36525;49.398;7.614;2023-03-14T04:55:28;7.60;99.90
50570;DHT22;36525;49.398;7.614;2023-03-14T04:57:59;7.70;99.90
50570;DHT22;36525;49.398;7.614;2023-03-14T05:00:26;7.70;99.90
50570;DHT22;36525;49.398;7.614;2023-03-14T05:02:53;7.60;99.90
50570;DHT22;36525;49.398;7.614;2023-03-14T05:05:20;7.60;99.90
50570;DHT22;36525;49.398;7.614;2023-03-14T05:07:48;7.60;99.90
50570;DHT22;36525;49.398;7.614;2023-03-14T05:10:15;7.60;99.90
50570;DHT22;36525;49.398;7.614;2023-03-14T05:12:42;7.50;99.90
50570;DHT22;36525;49.398;7.614;2023-03-14T05:15:09;7.60;99.90
50570;DHT22;36525;49.398;7.614;2023-03-14T05:17:37;7.60;99.90
50570;DHT22;36525;49.398;7.614;2023-03-14T05:20:04;7.50;99.90
50570;DHT22;36525;49.398;7.614;2023-03-14T05:22:35;7.40;99.90
50570;DHT22;36525;49.398;7.614;2023-03-14T05:25:03;7.40;99.90
50570;DHT22;36525;49.398;7.614;2023-03-14T05:27:30;7.40;99.90
50570;DHT22;36525;49.398;7.614;2023-03-14T05:29:57;7.30;99.90
50570;DHT22;36525;49.398;7.614;2023-03-14T05:32:24;7.40;99.90
50570;DHT22;36525;49.398;7.614;2023-03-14T05:34:54;7.40;99.90
50570;DHT22;36525;49.398;7.614;2023-03-14T05:37:27;7.40;99.90
50570;DHT22;36525;49.398;7.614;2023-03-14T05:39:55;7.40;99.90
50570;DHT22;36525;49.398;7.614;2023-03-14T05:42:22;7.40;99.90
50570;DHT22;36525;49.398;7.614;2023-03-14T05:44:49;7.40;99.90
50570;DHT22;36525;49.398;7.614;2023-03-14T05:47:15;7.30;99.90
50570;DHT22;36525;49.398;7.614;2023-03-14T05:49:43;7.30;99.90
50570;DHT22;36525;49.398;7.614;2023-03-14T05:52:09;7.20;99.90
50570;DHT22;36525;49.398;7.614;2023-03-14T05:54:36;7.20;99.90
50570;DHT22;36525;49.398;7.614;2023-03-14T05:57:03;7.20;99.90
50570;DHT22;36525;49.398;7.614;2023-03-14T05:59:30;7.20;99.90
50570;DHT22;36525;49.398;7.614;2023-03-14T06:01:57;7.20;99.90
50570;DHT22;36525;49.398;7.614;2023-03-14T06:04:25;7.20;99.90
50570;DHT22;36525;49.398;7.614;2023-03-14T06:06:52;7.10;99.90
50570;DHT22;36525;49.398;7.614;2023-03-14T06:09:18;7.10;99.90
50570;DHT22;36525;49.398;7.614;2023-03-14T06:11:46;7.10;99.90
50570;DHT22;36525;49.398;7.614;2023-03-14T06:14:13;7.00;99.90
50570;DHT22;36525;49.398;7.614;2023-03-14T06:16:40;7.00;99.90
50570;DHT22;36525;49.398;7.614;2023-03-14T06:19:07;7.00;99.90
50570;DHT22;36525;49.398;7.614;2023-03-14T06:21:34;7.00;99.90
50570;DHT22;36525;49.398;7.614;2023-03-14T06:24:01;6.90;99.90
50570;DHT22;36525;49.398;7.614;2023-03-14T06:26:29;6.90;99.90
50570;DHT22;36525;49.398;7.614;2023-03-14T06:28:56;6.90;99.90
50570;DHT22;36525;49.398;7.614;2023-03-14T06:31:23;7.00;99.90
50570;DHT22;36525;49.398;7.614;2023-03-14T06:33:50;7.00;99.90
50570;DHT22;36525;49.398;7.614;2023-03-14T06:36:17;7.10;99.90
50570;DHT22;36525;49.398;7.614;2023-03-14T06:38:44;7.10;99.90
50570;DHT22;36525;49.398;7.614;2023-03-14T06:41:11;7.10;99.90
50570;DHT22;36525;49.398;7.614;2023-03-14T06:43:38;7.10;99.90
50570;DHT22;36525;49.398;7.614;2023-03-14T06:46:05;7.10;99.90
50570;DHT22;36525;49.398;7.614;2023-03-14T06:48:33;7.10;99.90
50570;DHT22;36525;49.398;7.614;2023-03-14T06:51:00;7.20;99.90
50570;DHT22;36525;49.398;7.614;2023-03-14T06:53:26;7.20;99.90
50570;DHT22;36525;49.398;7.614;2023-03-14T06:55:53;7.10;99.90
50570;DHT22;36525;49.398;7.614;2023-03-14T06:58:20;7.10;99.90
50570;DHT22;36525;49.398;7.614;2023-03-14T07:00:47;7.20;99.90
50570;DHT22;36525;49.398;7.614;2023-03-14T07:03:14;7.20;99.90
50570;DHT22;36525;49.398;7.614;2023-03-14T07:05:41;7.30;99.90
50570;DHT22;36525;49.398;7.614;2023-03-14T07:08:09;7.30;99.90
50570;DHT22;36525;49.398;7.614;2023-03-14T07:10:36;7.40;99.90
50570;DHT22;36525;49.398;7.614;2023-03-14T07:13:03;7.30;99.90
50570;DHT22;36525;49.398;7.614;2023-03-14T07:15:30;7.40;99.90
50570;DHT22;36525;49.398;7.614;2023-03-14T07:17:57;7.30;99.90
50570;DHT22;36525;49.398;7.614;2023-03-14T07:20:24;7.40;99.90
50570;DHT22;36525;49.398;7.614;2023-03-14T07:22:51;7.40;99.90
50570;DHT22;36525;49.398;7.614;2023-03-14T07:25:18;7.40;99.90
50570;DHT22;36525;49.398;7.614;2023-03-14T07:27:46;7.50;99.90
50570;DHT22;36525;49.398;7.614;2023-03-14T07:30:14;7.60;99.90
50570;DHT22;36525;49.398;7.614;2023-03-14T07:32:42;7.60;99.90
50570;DHT22;36525;49.398;7.614;2023-03-14T07:35:09;7.70;99.90
50570;DHT22;36525;49.398;7.614;2023-03-14T07:37:36;7.60;99.90
50570;DHT22;36525;49.398;7.614;2023-03-14T07:40:04;7.60;99.90
50570;DHT22;36525;49.398;7.614;2023-03-14T07:42:33;7.60;99.90
50570;DHT22;36525;49.398;7.614;2023-03-14T07:45:00;7.50;99.90
50570;DHT22;36525;49.398;7.614;2023-03-14T07:47:27;7.50;99.90
50570;DHT22;36525;49.398;7.614;2023-03-14T07:49:54;7.50;99.90
50570;DHT22;36525;49.398;7.614;2023-03-14T07:52:22;7.40;99.90
50570;DHT22;36525;49.398;7.614;2023-03-14T07:54:50;7.40;99.90
50570;DHT22;36525;49.398;7.614;2023-03-14T07:57:16;7.40;99.90
50570;DHT22;36525;49.398;7.614;2023-03-14T07:59:43;7.40;99.90
50570;DHT22;36525;49.398;7.614;2023-03-14T08:02:12;7.40;99.90
50570;DHT22;36525;49.398;7.614;2023-03-14T08:04:40;7.40;99.90
50570;DHT22;36525;49.398;7.614;2023-03-14T08:07:07;7.50;99.90
50570;DHT22;36525;49.398;7.614;2023-03-14T08:09:34;7.50;99.90
50570;DHT22;36525;49.398;7.614;2023-03-14T08:12:04;7.50;99.90
50570;DHT22;36525;49.398;7.614;2023-03-14T08:14:32;7.60;99.90
50570;DHT22;36525;49.398;7.614;2023-03-14T08:16:59;7.60;99.90
50570;DHT22;36525;49.398;7.614;2023-03-14T08:19:26;7.70;99.90
50570;DHT22;36525;49.398;7.614;2023-03-14T08:21:53;7.70;99.90
50570;DHT22;36525;49.398;7.614;2023-03-14T08:24:20;7.70;99.90
50570;DHT22;36525;49.398;7.614;2023-03-14T08:26:47;7.70;99.90
50570;DHT22;36525;49.398;7.614;2023-03-14T08:29:14;7.70;99.90
50570;DHT22;36525;49.398;7.614;2023-03-14T08:31:41;7.70;99.90
50570;DHT22;36525;49.398;7.614;2023-03-14T08:34:08;7.60;99.90
50570;DHT22;36525;49.398;7.614;2023-03-14T08:36:36;7.70;99.90
50570;DHT22;36525;49.398;7.614;2023-03-14T08:39:03;7.70;99.90
50570;DHT22;36525;49.398;7.614;2023-03-14T08:41:30;7.70;99.90
50570;DHT22;36525;49.398;7.614;2023-03-14T08:43:57;7.70;99.90
50570;DHT22;36525;49.398;7.614;2023-03-14T08:46:24;7.70;99.90
50570;DHT22;36525;49.398;7.614;2023-03-14T08:48:51;7.60;99.90
50570;DHT22;36525;49.398;7.614;2023-03-14T08:51:18;7.70;99.90
50570;DHT22;36525;49.398;7.614;2023-03-14T08:53:45;7.60;99.90
50570;DHT22;36525;49.398;7.614;2023-03-14T08:56:12;7.60;99.90
50570;DHT22;36525;49.398;7.614;2023-03-14T08:58:39;7.70;99.90
50570;DHT22;36525;49.398;7.614;2023-03-14T09:01:09;7.60;99.90
50570;DHT22;36525;49.398;7.614;2023-03-14T09:03:37;7.60;99.90
50570;DHT22;36525;49.398;7.614;2023-03-14T09:06:06;7.70;99.90
50570;DHT22;36525;49.398;7.614;2023-03-14T09:08:35;7.70;99.90
50570;DHT22;36525;49.398;7.614;2023-03-14T09:11:07;7.90;99.90
50570;DHT22;36525;49.398;7.614;2023-03-14T09:13:35;8.00;99.90
50570;DHT22;36525;49.398;7.614;2023-03-14T09:16:03;8.10;99.90
50570;DHT22;36525;49.398;7.614;2023-03-14T09:18:31;8.10;99.90
50570;DHT22;36525;49.398;7.614;2023-03-14T09:20:58;8.30;99.90
50570;DHT22;36525;49.398;7.614;2023-03-14T09:23:24;8.50;99.90
50570;DHT22;36525;49.398;7.614;2023-03-14T09:25:58;8.50;99.90
50570;DHT22;36525;49.398;7.614;2023-03-14T09:28:27;8.60;99.90
50570;DHT22;36525;49.398;7.614;2023-03-14T09:30:54;8.40;99.90
50570;DHT22;36525;49.398;7.614;2023-03-14T09:33:21;8.30;99.90
50570;DHT22;36525;49.398;7.614;2023-03-14T09:35:48;8.40;99.90
50570;DHT22;36525;49.398;7.614;2023-03-14T09:38:16;8.40;99.90
50570;DHT22;36525;49.398;7.614;2023-03-14T09:40:43;8.20;99.90
50570;DHT22;36525;49.398;7.614;2023-03-14T09:43:11;8.30;99.90
50570;DHT22;36525;49.398;7.614;2023-03-14T09:45:41;8.30;99.90
50570;DHT22;36525;49.398;7.614;2023-03-14T09:48:20;8.40;99.90
50570;DHT22;36525;49.398;7.614;2023-03-14T09:50:59;8.50;99.90
50570;DHT22;36525;49.398;7.614;2023-03-14T09:53:45;8.50;99.90
50570;DHT22;36525;49.398;7.614;2023-03-14T09:56:17;8.50;99.90
50570;DHT22;36525;49.398;7.614;2023-03-14T09:58:56;8.30;99.90
50570;DHT22;36525;49.398;7.614;2023-03-14T10:01:29;8.20;99.90
50570;DHT22;36525;49.398;7.614;2023-03-14T10:04:04;8.10;99.90
50570;DHT22;36525;49.398;7.614;2023-03-14T10:06:34;8.00;99.90
50570;DHT22;36525;49.398;7.614;2023-03-14T10:09:02;7.90;99.90
50570;DHT22;36525;49.398;7.614;2023-03-14T10:11:31;7.90;99.90
50570;DHT22;36525;49.398;7.614;2023-03-14T10:16:52;8.00;99.90
50570;DHT22;36525;49.398;7.614;2023-03-14T10:19:19;8.10;99.90
50570;DHT22;36525;49.398;7.614;2023-03-14T10:21:53;8.10;99.90
50570;DHT22;36525;49.398;7.614;2023-03-14T10:24:34;8.00;99.90
50570;DHT22;36525;49.398;7.614;2023-03-14T10:27:04;8.00;99.90
50570;DHT22;36525;49.398;7.614;2023-03-14T10:29:52;7.90;99.90
50570;DHT22;36525;49.398;7.614;2023-03-14T10:32:45;7.90;99.90
50570;DHT22;36525;49.398;7.614;2023-03-14T10:38:01;7.90;99.90
50570;DHT22;36525;49.398;7.614;2023-03-14T10:40:37;7.80;99.90
50570;DHT22;36525;49.398;7.614;2023-03-14T10:43:11;7.80;99.90
50570;DHT22;36525;49.398;7.614;2023-03-14T10:45:42;7.70;99.90
50570;DHT22;36525;49.398;7.614;2023-03-14T10:48:22;7.60;99.90
50570;DHT22;36525;49.398;7.614;2023-03-14T10:51:12;7.60;99.90
50570;DHT22;36525;49.398;7.614;2023-03-14T10:56:39;7.10;99.90
50570;DHT22;36525;49.398;7.614;2023-03-14T10:59:14;7.00;99.90
50570;DHT22;36525;49.398;7.614;2023-03-14T11:02:03;6.90;99.90
50570;DHT22;36525;49.398;7.614;2023-03-14T11:07:43;6.80;99.90
50570;DHT22;36525;49.398;7.614;2023-03-14T11:10:35;6.70;99.90
50570;DHT22;36525;49.398;7.614;2023-03-14T11:13:27;6.60;99.90
50570;DHT22;36525;49.398;7.614;2023-03-14T11:21:53;6.80;99.90
50570;DHT22;36525;49.398;7.614;2023-03-14T11:30:05;6.50;99.90
50570;DHT22;36525;49.398;7.614;2023-03-14T11:33:03;6.40;99.90
50570;DHT22;36525;49.398;7.614;2023-03-14T11:35:58;6.40;99.90
50570;DHT22;36525;49.398;7.614;2023-03-14T11:38:38;6.30;99.90
50570;DHT22;36525;49.398;7.614;2023-03-14T11:41:17;6.10;99.90
50570;DHT22;36525;49.398;7.614;2023-03-14T11:44:14;6.00;99.90
50570;DHT22;36525;49.398;7.614;2023-03-14T11:47:09;5.90;99.90
50570;DHT22;36525;49.398;7.614;2023-03-14T11:50:29;5.70;99.90
50570;DHT22;36525;49.398;7.614;2023-03-14T11:52:56;5.70;99.90
50570;DHT22;36525;49.398;7.614;2023-03-14T11:55:36;5.70;99.90
50570;DHT22;36525;49.398;7.614;2023-03-14T12:00:54;6.20;99.90
50570;DHT22;36525;49.398;7.614;2023-03-14T12:03:45;6.40;99.90
50570;DHT22;36525;49.398;7.614;2023-03-14T12:06:49;6.40;99.90
50570;DHT22;36525;49.398;7.614;2023-03-14T12:09:20;6.70;99.90
50570;DHT22;36525;49.398;7.614;2023-03-14T12:11:51;6.80;99.90
50570;DHT22;36525;49.398;7.614;2023-03-14T12:14:32;6.90;99.90
50570;DHT22;36525;49.398;7.614;2023-03-14T12:17:17;6.90;99.90
50570;DHT22;36525;49.398;7.614;2023-03-14T12:20:05;7.10;99.90
50570;DHT22;36525;49.398;7.614;2023-03-14T12:22:47;7.30;99.90
50570;DHT22;36525;49.398;7.614;2023-03-14T12:25:23;7.50;99.90
50570;DHT22;36525;49.398;7.614;2023-03-14T12:38:37;7.10;99.90
50570;DHT22;36525;49.398;7.614;2023-03-14T12:47:06;7.20;99.90
50570;DHT22;36525;49.398;7.614;2023-03-14T12:49:49;7.40;99.90
50570;DHT22;36525;49.398;7.614;2023-03-14T12:52:40;7.40;99.90
50570;DHT22;36525;49.398;7.614;2023-03-14T13:01:19;7.30;99.90
50570;DHT22;36525;49.398;7.614;2023-03-14T13:03:58;7.10;99.90
50570;DHT22;36525;49.398;7.614;2023-03-14T13:06:54;7.10;99.90
50570;DHT22;36525;49.398;7.614;2023-03-14T13:12:00;7.00;99.90
50570;DHT22;36525;49.398;7.614;2023-03-14T13:14:30;7.10;99.90
50570;DHT22;36525;49.398;7.614;2023-03-14T13:17:02;7.10;99.90
50570;DHT22;36525;49.398;7.614;2023-03-14T13:19:55;7.20;99.90
50570;DHT22;36525;49.398;7.614;2023-03-14T13:22:29;7.10;99.90
50570;DHT22;36525;49.398;7.614;2023-03-14T13:25:07;7.20;99.90
50570;DHT22;36525;49.398;7.614;2023-03-14T13:27:37;7.70;99.90
50570;DHT22;36525;49.398;7.614;2023-03-14T13:30:20;7.70;99.90
50570;DHT22;36525;49.398;7.614;2023-03-14T13:32:50;7.70;99.90
50570;DHT22;36525;49.398;7.614;2023-03-14T13:37:56;7.90;99.90
50570;DHT22;36525;49.398;7.614;2023-03-14T13:40:37;7.70;99.90
50570;DHT22;36525;49.398;7.614;2023-03-14T13:43:25;7.70;99.90
50570;DHT22;36525;49.398;7.614;2023-03-14T13:46:07;7.70;99.90
50570;DHT22;36525;49.398;7.614;2023-03-14T13:48:49;7.70;99.90
50570;DHT22;36525;49.398;7.614;2023-03-14T13:51:22;7.70;99.90
50570;DHT22;36525;49.398;7.614;2023-03-14T13:53:54;7.80;99.90
50570;DHT22;36525;49.398;7.614;2023-03-14T13:56:27;7.60;99.90
50570;DHT22;36525;49.398;7.614;2023-03-14T13:58:56;7.50;99.90
50570;DHT22;36525;49.398;7.614;2023-03-14T14:01:29;7.40;99.90
50570;DHT22;36525;49.398;7.614;2023-03-14T14:04:05;7.20;99.90
50570;DHT22;36525;49.398;7.614;2023-03-14T14:06:39;7.10;99.90
50570;DHT22;36525;49.398;7.614;2023-03-14T14:09:17;7.00;99.90
50570;DHT22;36525;49.398;7.614;2023-03-14T14:11:54;7.10;99.90
50570;DHT22;36525;49.398;7.614;2023-03-14T14:17:35;7.20;99.90
50570;DHT22;36525;49.398;7.614;2023-03-14T14:20:06;7.30;99.90
50570;DHT22;36525;49.398;7.614;2023-03-14T14:22:37;7.90;99.90
50570;DHT22;36525;49.398;7.614;2023-03-14T14:25:05;8.40;99.90
50570;DHT22;36525;49.398;7.614;2023-03-14T14:27:36;9.50;99.90
50570;DHT22;36525;49.398;7.614;2023-03-14T14:32:49;11.50;99.90
50570;DHT22;36525;49.398;7.614;2023-03-14T14:35:32;12.10;99.90
50570;DHT22;36525;49.398;7.614;2023-03-14T14:38:01;12.60;99.90
50570;DHT22;36525;49.398;7.614;2023-03-14T14:40:30;12.50;98.90
50570;DHT22;36525;49.398;7.614;2023-03-14T14:43:04;12.40;98.60
50570;DHT22;36525;49.398;7.614;2023-03-14T14:45:34;11.20;97.00
50570;DHT22;36525;49.398;7.614;2023-03-14T14:52:57;10.60;96.50
50570;DHT22;36525;49.398;7.614;2023-03-14T14:55:40;11.10;96.00
50570;DHT22;36525;49.398;7.614;2023-03-14T14:58:16;9.90;96.70
50570;DHT22;36525;49.398;7.614;2023-03-14T15:01:04;9.50;97.80
50570;DHT22;36525;49.398;7.614;2023-03-14T15:03:35;10.00;97.50
50570;DHT22;36525;49.398;7.614;2023-03-14T15:06:03;10.50;98.60
50570;DHT22;36525;49.398;7.614;2023-03-14T15:08:30;10.50;97.20
50570;DHT22;36525;49.398;7.614;2023-03-14T15:10:58;10.30;97.30
50570;DHT22;36525;49.398;7.614;2023-03-14T15:13:26;10.30;98.10
50570;DHT22;36525;49.398;7.614;2023-03-14T15:15:53;10.40;97.70
50570;DHT22;36525;49.398;7.614;2023-03-14T15:18:24;10.20;97.90
50570;DHT22;36525;49.398;7.614;2023-03-14T15:20:56;9.80;98.30
50570;DHT22;36525;49.398;7.614;2023-03-14T15:23:23;9.50;98.70
50570;DHT22;36525;49.398;7.614;2023-03-14T15:25:51;9.00;99.90
50570;DHT22;36525;49.398;7.614;2023-03-14T15:28:26;8.80;99.90
50570;DHT22;36525;49.398;7.614;2023-03-14T15:30:56;8.70;99.90
50570;DHT22;36525;49.398;7.614;2023-03-14T15:33:26;8.70;99.90
50570;DHT22;36525;49.398;7.614;2023-03-14T15:35:53;8.50;99.90
50570;DHT22;36525;49.398;7.614;2023-03-14T15:38:21;8.30;99.90
50570;DHT22;36525;49.398;7.614;2023-03-14T15:40:52;8.20;99.90
50570;DHT22;36525;49.398;7.614;2023-03-14T15:43:19;7.90;99.90
50570;DHT22;36525;49.398;7.614;2023-03-14T15:45:47;7.90;99.90
50570;DHT22;36525;49.398;7.614;2023-03-14T15:48:16;7.90;99.90
50570;DHT22;36525;49.398;7.614;2023-03-14T15:50:45;7.90;99.90
50570;DHT22;36525;49.398;7.614;2023-03-14T15:53:12;7.80;99.90
50570;DHT22;36525;49.398;7.614;2023-03-14T15:55:39;7.60;99.90
50570;DHT22;36525;49.398;7.614;2023-03-14T15:58:11;7.60;99.90
50570;DHT22;36525;49.398;7.614;2023-03-14T16:00:46;7.60;99.90
50570;DHT22;36525;49.398;7.614;2023-03-14T16:03:13;7.50;99.90
50570;DHT22;36525;49.398;7.614;2023-03-14T16:05:41;7.40;99.90
50570;DHT22;36525;49.398;7.614;2023-03-14T16:08:08;7.30;99.90
50570;DHT22;36525;49.398;7.614;2023-03-14T16:10:35;7.30;99.90
50570;DHT22;36525;49.398;7.614;2023-03-14T16:13:02;7.30;99.90
50570;DHT22;36525;49.398;7.614;2023-03-14T16:15:29;7.40;99.90
50570;DHT22;36525;49.398;7.614;2023-03-14T16:17:56;7.30;99.90
50570;DHT22;36525;49.398;7.614;2023-03-14T16:20:24;7.30;99.90
50570;DHT22;36525;49.398;7.614;2023-03-14T16:22:56;7.70;99.90
50570;DHT22;36525;49.398;7.614;2023-03-14T16:25:24;8.00;99.90
50570;DHT22;36525;49.398;7.614;2023-03-14T16:27:50;8.00;99.90
50570;DHT22;36525;49.398;7.614;2023-03-14T16:30:36;7.80;99.90
50570;DHT22;36525;49.398;7.614;2023-03-14T16:33:04;7.60;99.90
50570;DHT22;36525;49.398;7.614;2023-03-14T16:35:39;7.30;99.90
50570;DHT22;36525;49.398;7.614;2023-03-14T16:38:07;7.10;99.90
50570;DHT22;36525;49.398;7.614;2023-03-14T16:40:34;7.00;99.90
50570;DHT22;36525;49.398;7.614;2023-03-14T16:43:01;6.90;99.90
50570;DHT22;36525;49.398;7.614;2023-03-14T16:45:50;6.90;99.90
50570;DHT22;36525;49.398;7.614;2023-03-14T16:48:17;6.70;99.90
50570;DHT22;36525;49.398;7.614;2023-03-14T16:50:44;6.80;99.90
50570;DHT22;36525;49.398;7.614;2023-03-14T16:53:11;6.80;99.90
50570;DHT22;36525;49.398;7.614;2023-03-14T16:55:42;6.70;99.90
50570;DHT22;36525;49.398;7.614;2023-03-14T16:58:09;6.70;99.90
50570;DHT22;36525;49.398;7.614;2023-03-14T17:00:36;6.70;99.90
50570;DHT22;36525;49.398;7.614;2023-03-14T17:03:04;6.60;99.90
50570;DHT22;36525;49.398;7.614;2023-03-14T17:05:32;6.70;99.90
50570;DHT22;36525;49.398;7.614;2023-03-14T17:07:59;6.70;99.90
50570;DHT22;36525;49.398;7.614;2023-03-14T17:10:26;6.80;99.90
50570;DHT22;36525;49.398;7.614;2023-03-14T17:12:53;6.80;99.90
50570;DHT22;36525;49.398;7.614;2023-03-14T17:15:20;6.80;99.90
50570;DHT22;36525;49.398;7.614;2023-03-14T17:17:47;6.80;99.90
50570;DHT22;36525;49.398;7.614;2023-03-14T17:20:17;6.70;99.90
50570;DHT22;36525;49.398;7.614;2023-03-14T17:22:44;6.40;99.90